sensor_id;sensor_type;location;lat;lon;timestamp;P1;durP1;ratioP1;P2;durP2;ratioP2
6671;SDS011;3372;48.690;12.362;2023-05-10T00:00:13;9.60;;;6.70;;
6671;SDS011;3372;48.690;12.362;2023-05-10T00:02:39;10.17;;;8.37;;
6671;SDS011;3372;48.690;12.362;2023-05-10T00:05:05;10.87;;;9.20;;
6671;SDS011;3372;48.690;12.362;2023-05-10T00:07:31;7.83;;;6.87;;
6671;SDS011;3372;48.690;12.362;2023-05-10T00:09:57;10.00;;;7.40;;
6671;SDS011;3372;48.690;12.362;2023-05-10T00:12:23;7.60;;;6.40;;
6671;SDS011;3372;48.690;12.362;2023-05-10T00:14:48;6.60;;;5.90;;
6671;SDS011;3372;48.690;12.362;2023-05-10T00:17:15;9.23;;;6.50;;
6671;SDS011;3372;48.690;12.362;2023-05-10T00:19:41;7.73;;;6.20;;
6671;SDS011;3372;48.690;12.362;2023-05-10T00:22:06;8.23;;;6.60;;
6671;SDS011;3372;48.690;12.362;2023-05-10T00:24:32;11.00;;;7.47;;
6671;SDS011;3372;48.690;12.362;2023-05-10T00:26:57;7.80;;;6.30;;
6671;SDS011;3372;48.690;12.362;2023-05-10T00:29:23;9.20;;;7.97;;
6671;SDS011;3372;48.690;12.362;2023-05-10T00:31:49;7.93;;;6.27;;
6671;SDS011;3372;48.690;12.362;2023-05-10T00:34:14;7.40;;;5.83;;
6671;SDS011;3372;48.690;12.362;2023-05-10T00:36:40;7.60;;;6.23;;
6671;SDS011;3372;48.690;12.362;2023-05-10T00:39:06;8.13;;;6.17;;
6671;SDS011;3372;48.690;12.362;2023-05-10T00:41:32;7.10;;;6.40;;
6671;SDS011;3372;48.690;12.362;2023-05-10T00:43:58;6.83;;;5.90;;
6671;SDS011;3372;48.690;12.362;2023-05-10T00:46:24;8.50;;;5.83;;
6671;SDS011;3372;48.690;12.362;2023-05-10T00:48:50;9.40;;;6.40;;
6671;SDS011;3372;48.690;12.362;2023-05-10T00:51:16;9.80;;;7.10;;
6671;SDS011;3372;48.690;12.362;2023-05-10T00:53:43;7.50;;;6.20;;
6671;SDS011;3372;48.690;12.362;2023-05-10T00:56:10;8.60;;;6.60;;
6671;SDS011;3372;48.690;12.362;2023-05-10T00:58:37;6.83;;;6.03;;
6671;SDS011;3372;48.690;12.362;2023-05-10T01:01:03;7.80;;;6.23;;
6671;SDS011;3372;48.690;12.362;2023-05-10T01:03:31;11.03;;;7.97;;
6671;SDS011;3372;48.690;12.362;2023-05-10T01:05:57;9.27;;;6.83;;
6671;SDS011;3372;48.690;12.362;2023-05-10T01:08:23;9.50;;;6.90;;
6671;SDS011;3372;48.690;12.362;2023-05-10T01:10:49;7.93;;;6.50;;
6671;SDS011;3372;48.690;12.362;2023-05-10T01:13:19;9.33;;;7.63;;
6671;SDS011;3372;48.690;12.362;2023-05-10T01:15:55;7.70;;;6.03;;
6671;SDS011;3372;48.690;12.362;2023-05-10T01:18:21;8.77;;;6.63;;
6671;SDS011;3372;48.690;12.362;2023-05-10T01:20:48;9.03;;;6.73;;
6671;SDS011;3372;48.690;12.362;2023-05-10T01:34:42;7.87;;;7.00;;
6671;SDS011;3372;48.690;12.362;2023-05-10T01:37:25;9.20;;;7.03;;
6671;SDS011;3372;48.690;12.362;2023-05-10T01:42:44;8.53;;;7.20;;
6671;SDS011;3372;48.690;12.362;2023-05-10T01:45:37;8.20;;;6.50;;
6671;SDS011;3372;48.690;12.362;2023-05-10T01:48:24;12.83;;;7.63;;
6671;SDS011;3372;48.690;12.362;2023-05-10T01:50:52;8.43;;;7.10;;
6671;SDS011;3372;48.690;12.362;2023-05-10T01:53:20;9.03;;;7.00;;
6671;SDS011;3372;48.690;12.362;2023-05-10T01:55:48;9.50;;;7.17;;
6671;SDS011;3372;48.690;12.362;2023-05-10T01:58:19;8.60;;;7.70;;
6671;SDS011;3372;48.690;12.362;2023-05-10T02:00:47;8.60;;;7.60;;
6671;SDS011;3372;48.690;12.362;2023-05-10T02:03:15;9.73;;;7.33;;
6671;SDS011;3372;48.690;12.362;2023-05-10T02:05:43;10.30;;;7.73;;
6671;SDS011;3372;48.690;12.362;2023-05-10T02:08:10;11.33;;;7.90;;
6671;SDS011;3372;48.690;12.362;2023-05-10T02:10:36;9.13;;;8.00;;
6671;SDS011;3372;48.690;12.362;2023-05-10T02:13:04;12.50;;;7.33;;
6671;SDS011;3372;48.690;12.362;2023-05-10T02:15:32;11.00;;;8.00;;
6671;SDS011;3372;48.690;12.362;2023-05-10T02:17:59;10.63;;;8.07;;
6671;SDS011;3372;48.690;12.362;2023-05-10T02:20:26;11.30;;;7.50;;
6671;SDS011;3372;48.690;12.362;2023-05-10T02:22:52;10.27;;;7.73;;
6671;SDS011;3372;48.690;12.362;2023-05-10T02:25:21;12.07;;;8.10;;
6671;SDS011;3372;48.690;12.362;2023-05-10T02:27:48;12.20;;;8.07;;
6671;SDS011;3372;48.690;12.362;2023-05-10T02:30:15;11.30;;;7.53;;
6671;SDS011;3372;48.690;12.362;2023-05-10T02:32:41;9.80;;;8.20;;
6671;SDS011;3372;48.690;12.362;2023-05-10T02:35:08;9.10;;;7.30;;
6671;SDS011;3372;48.690;12.362;2023-05-10T02:37:36;10.40;;;7.73;;
6671;SDS011;3372;48.690;12.362;2023-05-10T02:40:04;9.57;;;8.57;;
6671;SDS011;3372;48.690;12.362;2023-05-10T02:42:32;10.80;;;8.53;;
6671;SDS011;3372;48.690;12.362;2023-05-10T02:45:01;9.40;;;7.70;;
6671;SDS011;3372;48.690;12.362;2023-05-10T02:47:30;11.73;;;8.17;;
6671;SDS011;3372;48.690;12.362;2023-05-10T02:49:56;9.83;;;8.07;;
6671;SDS011;3372;48.690;12.362;2023-05-10T02:52:24;10.13;;;7.93;;
6671;SDS011;3372;48.690;12.362;2023-05-10T02:54:58;9.93;;;7.90;;
6671;SDS011;3372;48.690;12.362;2023-05-10T02:57:32;11.43;;;9.10;;
6671;SDS011;3372;48.690;12.362;2023-05-10T02:59:59;9.17;;;8.10;;
6671;SDS011;3372;48.690;12.362;2023-05-10T03:02:26;9.83;;;8.13;;
6671;SDS011;3372;48.690;12.362;2023-05-10T03:04:51;8.80;;;7.20;;
6671;SDS011;3372;48.690;12.362;2023-05-10T03:07:17;12.33;;;8.87;;
6671;SDS011;3372;48.690;12.362;2023-05-10T03:09:46;12.90;;;8.50;;
6671;SDS011;3372;48.690;12.362;2023-05-10T03:15:18;11.10;;;8.70;;
6671;SDS011;3372;48.690;12.362;2023-05-10T03:18:07;10.77;;;8.80;;
6671;SDS011;3372;48.690;12.362;2023-05-10T03:20:44;11.00;;;8.60;;
6671;SDS011;3372;48.690;12.362;2023-05-10T03:23:16;11.40;;;7.80;;
6671;SDS011;3372;48.690;12.362;2023-05-10T03:25:48;11.57;;;8.60;;
6671;SDS011;3372;48.690;12.362;2023-05-10T03:28:16;9.90;;;8.07;;
6671;SDS011;3372;48.690;12.362;2023-05-10T03:30:43;10.67;;;8.10;;
6671;SDS011;3372;48.690;12.362;2023-05-10T03:33:09;11.40;;;8.90;;
6671;SDS011;3372;48.690;12.362;2023-05-10T03:35:35;13.37;;;9.43;;
6671;SDS011;3372;48.690;12.362;2023-05-10T03:38:02;13.27;;;9.53;;
6671;SDS011;3372;48.690;12.362;2023-05-10T03:40:28;13.13;;;9.00;;
6671;SDS011;3372;48.690;12.362;2023-05-10T03:42:56;12.63;;;9.13;;
6671;SDS011;3372;48.690;12.362;2023-05-10T03:45:22;11.70;;;8.33;;
6671;SDS011;3372;48.690;12.362;2023-05-10T03:47:47;10.33;;;8.57;;
6671;SDS011;3372;48.690;12.362;2023-05-10T03:50:13;11.37;;;9.03;;
6671;SDS011;3372;48.690;12.362;2023-05-10T03:52:38;14.47;;;9.83;;
6671;SDS011;3372;48.690;12.362;2023-05-10T03:55:04;12.10;;;9.80;;
6671;SDS011;3372;48.690;12.362;2023-05-10T03:57:31;16.83;;;10.87;;
6671;SDS011;3372;48.690;12.362;2023-05-10T03:59:57;13.10;;;9.70;;
6671;SDS011;3372;48.690;12.362;2023-05-10T04:02:22;12.10;;;9.67;;
6671;SDS011;3372;48.690;12.362;2023-05-10T04:04:48;15.03;;;9.80;;
6671;SDS011;3372;48.690;12.362;2023-05-10T04:07:14;15.37;;;9.23;;
6671;SDS011;3372;48.690;12.362;2023-05-10T04:09:40;12.30;;;9.70;;
6671;SDS011;3372;48.690;12.362;2023-05-10T04:12:05;15.70;;;11.10;;
6671;SDS011;3372;48.690;12.362;2023-05-10T04:14:31;13.60;;;10.20;;
6671;SDS011;3372;48.690;12.362;2023-05-10T04:16:57;14.67;;;10.53;;
6671;SDS011;3372;48.690;12.362;2023-05-10T04:19:22;12.00;;;9.03;;
6671;SDS011;3372;48.690;12.362;2023-05-10T04:21:48;13.30;;;9.50;;
6671;SDS011;3372;48.690;12.362;2023-05-10T04:24:14;10.90;;;8.30;;
6671;SDS011;3372;48.690;12.362;2023-05-10T04:26:39;12.37;;;10.20;;
6671;SDS011;3372;48.690;12.362;2023-05-10T04:29:05;12.00;;;9.27;;
6671;SDS011;3372;48.690;12.362;2023-05-10T04:31:31;11.43;;;8.70;;
6671;SDS011;3372;48.690;12.362;2023-05-10T04:33:56;13.13;;;9.00;;
6671;SDS011;3372;48.690;12.362;2023-05-10T04:36:22;10.17;;;8.70;;
6671;SDS011;3372;48.690;12.362;2023-05-10T04:38:47;10.37;;;7.90;;
6671;SDS011;3372;48.690;12.362;2023-05-10T04:41:13;9.27;;;7.60;;
6671;SDS011;3372;48.690;12.362;2023-05-10T04:43:41;9.93;;;7.80;;
6671;SDS011;3372;48.690;12.362;2023-05-10T04:46:07;12.83;;;9.07;;
6671;SDS011;3372;48.690;12.362;2023-05-10T04:48:32;9.73;;;8.03;;
6671;SDS011;3372;48.690;12.362;2023-05-10T04:50:58;9.93;;;7.10;;
6671;SDS011;3372;48.690;12.362;2023-05-10T04:53:24;12.03;;;8.10;;
6671;SDS011;3372;48.690;12.362;2023-05-10T04:55:50;12.63;;;8.73;;
6671;SDS011;3372;48.690;12.362;2023-05-10T04:58:15;10.70;;;7.93;;
6671;SDS011;3372;48.690;12.362;2023-05-10T05:00:41;14.20;;;8.20;;
6671;SDS011;3372;48.690;12.362;2023-05-10T05:03:07;10.90;;;8.07;;
6671;SDS011;3372;48.690;12.362;2023-05-10T05:05:33;10.53;;;7.80;;
6671;SDS011;3372;48.690;12.362;2023-05-10T05:07:58;9.40;;;7.80;;
6671;SDS011;3372;48.690;12.362;2023-05-10T05:10:24;9.80;;;7.80;;
6671;SDS011;3372;48.690;12.362;2023-05-10T05:12:50;9.27;;;8.00;;
6671;SDS011;3372;48.690;12.362;2023-05-10T05:15:15;10.77;;;7.97;;
6671;SDS011;3372;48.690;12.362;2023-05-10T05:17:42;9.57;;;8.03;;
6671;SDS011;3372;48.690;12.362;2023-05-10T05:20:08;12.27;;;7.83;;
6671;SDS011;3372;48.690;12.362;2023-05-10T05:22:35;10.43;;;7.30;;
6671;SDS011;3372;48.690;12.362;2023-05-10T05:25:01;9.77;;;7.30;;
6671;SDS011;3372;48.690;12.362;2023-05-10T05:27:28;13.80;;;7.27;;
6671;SDS011;3372;48.690;12.362;2023-05-10T05:29:54;9.17;;;6.93;;
6671;SDS011;3372;48.690;12.362;2023-05-10T05:32:21;9.67;;;6.93;;
6671;SDS011;3372;48.690;12.362;2023-05-10T05:34:47;11.00;;;6.77;;
6671;SDS011;3372;48.690;12.362;2023-05-10T05:37:13;8.87;;;7.37;;
6671;SDS011;3372;48.690;12.362;2023-05-10T05:39:39;16.20;;;14.13;;
6671;SDS011;3372;48.690;12.362;2023-05-10T05:42:05;8.73;;;6.40;;
6671;SDS011;3372;48.690;12.362;2023-05-10T05:44:31;7.50;;;5.80;;
6671;SDS011;3372;48.690;12.362;2023-05-10T05:46:56;6.50;;;5.13;;
6671;SDS011;3372;48.690;12.362;2023-05-10T05:49:22;12.53;;;11.20;;
6671;SDS011;3372;48.690;12.362;2023-05-10T05:51:49;4.30;;;3.80;;
6671;SDS011;3372;48.690;12.362;2023-05-10T05:54:15;8.53;;;7.73;;
6671;SDS011;3372;48.690;12.362;2023-05-10T05:56:41;6.50;;;5.23;;
6671;SDS011;3372;48.690;12.362;2023-05-10T05:59:07;7.13;;;4.47;;
6671;SDS011;3372;48.690;12.362;2023-05-10T06:01:32;5.37;;;3.57;;
6671;SDS011;3372;48.690;12.362;2023-05-10T06:03:58;3.47;;;3.17;;
6671;SDS011;3372;48.690;12.362;2023-05-10T06:06:24;4.87;;;2.87;;
6671;SDS011;3372;48.690;12.362;2023-05-10T06:08:49;3.40;;;3.10;;
6671;SDS011;3372;48.690;12.362;2023-05-10T06:11:15;3.10;;;2.77;;
6671;SDS011;3372;48.690;12.362;2023-05-10T06:13:40;3.30;;;2.87;;
6671;SDS011;3372;48.690;12.362;2023-05-10T06:16:07;3.40;;;3.10;;
6671;SDS011;3372;48.690;12.362;2023-05-10T06:18:33;3.37;;;2.50;;
6671;SDS011;3372;48.690;12.362;2023-05-10T06:20:58;3.37;;;3.07;;
6671;SDS011;3372;48.690;12.362;2023-05-10T06:23:24;4.67;;;3.10;;
6671;SDS011;3372;48.690;12.362;2023-05-10T06:25:50;3.27;;;2.70;;
6671;SDS011;3372;48.690;12.362;2023-05-10T06:28:16;3.93;;;2.70;;
6671;SDS011;3372;48.690;12.362;2023-05-10T06:30:42;3.20;;;2.90;;
6671;SDS011;3372;48.690;12.362;2023-05-10T06:33:08;3.80;;;3.40;;
6671;SDS011;3372;48.690;12.362;2023-05-10T06:35:33;4.27;;;3.87;;
6671;SDS011;3372;48.690;12.362;2023-05-10T06:37:59;5.03;;;3.50;;
6671;SDS011;3372;48.690;12.362;2023-05-10T06:40:25;4.30;;;3.90;;
6671;SDS011;3372;48.690;12.362;2023-05-10T06:42:50;5.03;;;4.63;;
6671;SDS011;3372;48.690;12.362;2023-05-10T06:45:16;4.50;;;4.10;;
6671;SDS011;3372;48.690;12.362;2023-05-10T06:47:42;4.10;;;3.80;;
6671;SDS011;3372;48.690;12.362;2023-05-10T06:50:08;3.67;;;3.33;;
6671;SDS011;3372;48.690;12.362;2023-05-10T06:52:36;3.67;;;3.17;;
6671;SDS011;3372;48.690;12.362;2023-05-10T06:55:03;3.00;;;2.70;;
6671;SDS011;3372;48.690;12.362;2023-05-10T06:57:29;3.47;;;3.17;;
6671;SDS011;3372;48.690;12.362;2023-05-10T06:59:55;4.73;;;2.77;;
6671;SDS011;3372;48.690;12.362;2023-05-10T07:02:21;5.17;;;4.17;;
6671;SDS011;3372;48.690;12.362;2023-05-10T07:04:47;4.90;;;4.40;;
6671;SDS011;3372;48.690;12.362;2023-05-10T07:07:13;4.70;;;4.20;;
6671;SDS011;3372;48.690;12.362;2023-05-10T07:09:39;3.83;;;3.10;;
6671;SDS011;3372;48.690;12.362;2023-05-10T07:12:05;6.67;;;4.73;;
6671;SDS011;3372;48.690;12.362;2023-05-10T07:14:31;6.83;;;4.50;;
6671;SDS011;3372;48.690;12.362;2023-05-10T07:16:57;7.83;;;6.57;;
6671;SDS011;3372;48.690;12.362;2023-05-10T07:19:22;5.23;;;4.73;;
6671;SDS011;3372;48.690;12.362;2023-05-10T07:21:48;8.43;;;6.47;;
6671;SDS011;3372;48.690;12.362;2023-05-10T07:24:15;7.87;;;6.20;;
6671;SDS011;3372;48.690;12.362;2023-05-10T07:26:41;7.60;;;5.70;;
6671;SDS011;3372;48.690;12.362;2023-05-10T07:29:07;9.50;;;7.30;;
6671;SDS011;3372;48.690;12.362;2023-05-10T07:31:32;11.37;;;9.30;;
6671;SDS011;3372;48.690;12.362;2023-05-10T07:33:58;10.87;;;9.13;;
6671;SDS011;3372;48.690;12.362;2023-05-10T07:36:24;9.63;;;8.60;;
6671;SDS011;3372;48.690;12.362;2023-05-10T07:38:49;10.57;;;7.93;;
6671;SDS011;3372;48.690;12.362;2023-05-10T07:41:15;9.07;;;7.00;;
6671;SDS011;3372;48.690;12.362;2023-05-10T07:43:41;10.13;;;8.20;;
6671;SDS011;3372;48.690;12.362;2023-05-10T07:46:06;7.27;;;6.10;;
6671;SDS011;3372;48.690;12.362;2023-05-10T07:48:32;8.50;;;6.33;;
6671;SDS011;3372;48.690;12.362;2023-05-10T07:50:58;6.93;;;5.20;;
6671;SDS011;3372;48.690;12.362;2023-05-10T07:53:24;6.30;;;5.40;;
6671;SDS011;3372;48.690;12.362;2023-05-10T07:55:51;9.07;;;5.80;;
6671;SDS011;3372;48.690;12.362;2023-05-10T07:58:19;5.97;;;5.00;;
6671;SDS011;3372;48.690;12.362;2023-05-10T08:00:45;5.13;;;3.80;;
6671;SDS011;3372;48.690;12.362;2023-05-10T08:03:10;5.23;;;4.03;;
6671;SDS011;3372;48.690;12.362;2023-05-10T08:05:36;5.47;;;4.23;;
6671;SDS011;3372;48.690;12.362;2023-05-10T08:08:02;4.27;;;3.83;;
6671;SDS011;3372;48.690;12.362;2023-05-10T08:10:27;4.30;;;3.20;;
6671;SDS011;3372;48.690;12.362;2023-05-10T08:12:53;5.93;;;4.43;;
6671;SDS011;3372;48.690;12.362;2023-05-10T08:15:18;5.83;;;2.70;;
6671;SDS011;3372;48.690;12.362;2023-05-10T08:17:44;3.70;;;3.03;;
6671;SDS011;3372;48.690;12.362;2023-05-10T08:20:10;4.80;;;3.53;;
6671;SDS011;3372;48.690;12.362;2023-05-10T08:22:37;3.03;;;2.73;;
6671;SDS011;3372;48.690;12.362;2023-05-10T08:25:03;3.83;;;2.57;;
6671;SDS011;3372;48.690;12.362;2023-05-10T08:27:29;3.20;;;2.73;;
6671;SDS011;3372;48.690;12.362;2023-05-10T08:29:54;3.90;;;2.37;;
6671;SDS011;3372;48.690;12.362;2023-05-10T08:32:20;2.80;;;2.60;;
6671;SDS011;3372;48.690;12.362;2023-05-10T08:34:46;2.80;;;2.23;;
6671;SDS011;3372;48.690;12.362;2023-05-10T08:37:11;2.20;;;2.00;;
6671;SDS011;3372;48.690;12.362;2023-05-10T08:39:38;2.40;;;2.20;;
6671;SDS011;3372;48.690;12.362;2023-05-10T08:42:04;2.70;;;2.20;;
6671;SDS011;3372;48.690;12.362;2023-05-10T08:44:34;3.07;;;2.40;;
6671;SDS011;3372;48.690;12.362;2023-05-10T08:47:02;2.53;;;2.20;;
6671;SDS011;3372;48.690;12.362;2023-05-10T08:49:32;2.80;;;2.50;;
6671;SDS011;3372;48.690;12.362;2023-05-10T08:51:58;3.50;;;2.80;;
6671;SDS011;3372;48.690;12.362;2023-05-10T08:54:26;3.10;;;2.80;;
6671;SDS011;3372;48.690;12.362;2023-05-10T08:56:52;4.37;;;2.87;;
6671;SDS011;3372;48.690;12.362;2023-05-10T08:59:18;2.90;;;2.33;;
6671;SDS011;3372;48.690;12.362;2023-05-10T09:01:52;2.70;;;2.00;;
6671;SDS011;3372;48.690;12.362;2023-05-10T09:04:29;2.37;;;2.17;;
6671;SDS011;3372;48.690;12.362;2023-05-10T09:06:56;4.70;;;4.30;;
6671;SDS011;3372;48.690;12.362;2023-05-10T09:09:22;4.40;;;4.00;;
6671;SDS011;3372;48.690;12.362;2023-05-10T09:11:50;4.10;;;3.70;;
6671;SDS011;3372;48.690;12.362;2023-05-10T09:14:17;3.90;;;3.60;;
6671;SDS011;3372;48.690;12.362;2023-05-10T09:16:44;5.00;;;4.50;;
6671;SDS011;3372;48.690;12.362;2023-05-10T09:19:10;3.70;;;3.33;;
6671;SDS011;3372;48.690;12.362;2023-05-10T09:21:36;3.70;;;3.40;;
6671;SDS011;3372;48.690;12.362;2023-05-10T09:24:06;3.80;;;3.40;;
6671;SDS011;3372;48.690;12.362;2023-05-10T09:26:33;3.07;;;2.67;;
6671;SDS011;3372;48.690;12.362;2023-05-10T09:29:00;3.50;;;2.50;;
6671;SDS011;3372;48.690;12.362;2023-05-10T09:31:42;3.10;;;2.37;;
6671;SDS011;3372;48.690;12.362;2023-05-10T09:34:08;2.83;;;2.63;;
6671;SDS011;3372;48.690;12.362;2023-05-10T09:36:34;2.80;;;2.50;;
6671;SDS011;3372;48.690;12.362;2023-05-10T09:38:59;3.13;;;2.37;;
6671;SDS011;3372;48.690;12.362;2023-05-10T09:41:25;2.77;;;2.23;;
6671;SDS011;3372;48.690;12.362;2023-05-10T09:43:55;2.80;;;2.60;;
6671;SDS011;3372;48.690;12.362;2023-05-10T09:46:34;3.60;;;2.70;;
6671;SDS011;3372;48.690;12.362;2023-05-10T09:49:03;4.53;;;2.47;;
6671;SDS011;3372;48.690;12.362;2023-05-10T09:51:30;2.37;;;2.17;;
6671;SDS011;3372;48.690;12.362;2023-05-10T09:54:16;3.20;;;2.73;;
6671;SDS011;3372;48.690;12.362;2023-05-10T09:56:42;2.67;;;2.40;;
6671;SDS011;3372;48.690;12.362;2023-05-10T09:59:09;2.90;;;2.17;;
6671;SDS011;3372;48.690;12.362;2023-05-10T10:01:37;2.73;;;2.40;;
6671;SDS011;3372;48.690;12.362;2023-05-10T10:04:06;2.27;;;2.03;;
6671;SDS011;3372;48.690;12.362;2023-05-10T10:06:39;4.10;;;2.00;;
6671;SDS011;3372;48.690;12.362;2023-05-10T10:09:06;3.07;;;2.20;;
6671;SDS011;3372;48.690;12.362;2023-05-10T10:11:33;2.30;;;2.10;;
6671;SDS011;3372;48.690;12.362;2023-05-10T10:14:00;1.87;;;1.67;;
6671;SDS011;3372;48.690;12.362;2023-05-10T10:16:27;1.60;;;1.20;;
6671;SDS011;3372;48.690;12.362;2023-05-10T10:18:54;2.00;;;1.33;;
6671;SDS011;3372;48.690;12.362;2023-05-10T10:21:20;4.30;;;2.90;;
6671;SDS011;3372;48.690;12.362;2023-05-10T10:23:47;2.40;;;1.90;;
6671;SDS011;3372;48.690;12.362;2023-05-10T10:26:13;1.90;;;1.40;;
6671;SDS011;3372;48.690;12.362;2023-05-10T10:31:17;1.87;;;1.53;;
6671;SDS011;3372;48.690;12.362;2023-05-10T10:34:10;3.40;;;1.67;;
6671;SDS011;3372;48.690;12.362;2023-05-10T10:36:49;2.23;;;2.03;;
6671;SDS011;3372;48.690;12.362;2023-05-10T10:39:15;3.17;;;2.00;;
6671;SDS011;3372;48.690;12.362;2023-05-10T10:41:54;1.60;;;1.40;;
6671;SDS011;3372;48.690;12.362;2023-05-10T10:52:15;2.17;;;1.70;;
6671;SDS011;3372;48.690;12.362;2023-05-10T10:55:01;2.20;;;1.77;;
6671;SDS011;3372;48.690;12.362;2023-05-10T11:02:54;3.47;;;2.40;;
6671;SDS011;3372;48.690;12.362;2023-05-10T11:10:40;3.73;;;2.90;;
6671;SDS011;3372;48.690;12.362;2023-05-10T11:13:17;4.00;;;2.80;;
6671;SDS011;3372;48.690;12.362;2023-05-10T11:15:56;3.10;;;2.60;;
6671;SDS011;3372;48.690;12.362;2023-05-10T11:18:24;4.00;;;2.87;;
6671;SDS011;3372;48.690;12.362;2023-05-10T11:20:59;5.30;;;2.80;;
6671;SDS011;3372;48.690;12.362;2023-05-10T11:24:12;3.60;;;2.90;;
6671;SDS011;3372;48.690;12.362;2023-05-10T11:26:21;4.20;;;2.90;;
6671;SDS011;3372;48.690;12.362;2023-05-10T11:28:51;3.87;;;3.27;;
6671;SDS011;3372;48.690;12.362;2023-05-10T11:31:19;5.27;;;3.17;;
6671;SDS011;3372;48.690;12.362;2023-05-10T11:33:46;3.67;;;3.37;;
6671;SDS011;3372;48.690;12.362;2023-05-10T11:36:32;3.23;;;2.37;;
6671;SDS011;3372;48.690;12.362;2023-05-10T11:38:59;3.23;;;2.93;;
6671;SDS011;3372;48.690;12.362;2023-05-10T11:41:26;3.40;;;2.90;;
6671;SDS011;3372;48.690;12.362;2023-05-10T11:43:53;4.03;;;3.03;;
6671;SDS011;3372;48.690;12.362;2023-05-10T11:46:20;3.23;;;2.43;;
6671;SDS011;3372;48.690;12.362;2023-05-10T11:48:57;3.20;;;2.90;;
6671;SDS011;3372;48.690;12.362;2023-05-10T11:51:26;5.93;;;3.00;;
6671;SDS011;3372;48.690;12.362;2023-05-10T11:53:53;4.20;;;3.30;;
6671;SDS011;3372;48.690;12.362;2023-05-10T11:56:20;3.27;;;2.97;;
6671;SDS011;3372;48.690;12.362;2023-05-10T11:58:52;3.50;;;3.20;;
6671;SDS011;3372;48.690;12.362;2023-05-10T12:01:21;3.87;;;3.37;;
6671;SDS011;3372;48.690;12.362;2023-05-10T12:03:49;3.90;;;3.30;;
6671;SDS011;3372;48.690;12.362;2023-05-10T12:06:19;3.67;;;3.37;;
6671;SDS011;3372;48.690;12.362;2023-05-10T12:08:46;3.50;;;3.13;;
6671;SDS011;3372;48.690;12.362;2023-05-10T12:11:13;5.43;;;4.10;;
6671;SDS011;3372;48.690;12.362;2023-05-10T12:13:43;3.77;;;3.10;;
6671;SDS011;3372;48.690;12.362;2023-05-10T12:16:15;3.53;;;3.23;;
6671;SDS011;3372;48.690;12.362;2023-05-10T12:18:43;4.70;;;4.20;;
6671;SDS011;3372;48.690;12.362;2023-05-10T12:21:10;4.73;;;3.83;;
6671;SDS011;3372;48.690;12.362;2023-05-10T12:23:36;5.30;;;4.10;;
6671;SDS011;3372;48.690;12.362;2023-05-10T12:26:03;6.33;;;3.60;;
6671;SDS011;3372;48.690;12.362;2023-05-10T12:28:30;3.50;;;3.20;;
6671;SDS011;3372;48.690;12.362;2023-05-10T12:30:57;5.33;;;4.03;;
6671;SDS011;3372;48.690;12.362;2023-05-10T12:33:24;4.30;;;3.80;;
6671;SDS011;3372;48.690;12.362;2023-05-10T12:35:51;3.33;;;3.03;;
6671;SDS011;3372;48.690;12.362;2023-05-10T12:38:25;5.30;;;3.47;;
6671;SDS011;3372;48.690;12.362;2023-05-10T12:40:53;5.63;;;3.43;;
6671;SDS011;3372;48.690;12.362;2023-05-10T12:43:19;4.83;;;2.70;;
6671;SDS011;3372;48.690;12.362;2023-05-10T12:45:45;4.60;;;2.73;;
6671;SDS011;3372;48.690;12.362;2023-05-10T12:48:13;4.57;;;2.70;;
6671;SDS011;3372;48.690;12.362;2023-05-10T12:50:38;2.63;;;2.33;;
6671;SDS011;3372;48.690;12.362;2023-05-10T12:53:04;4.67;;;2.57;;
6671;SDS011;3372;48.690;12.362;2023-05-10T12:55:29;3.17;;;2.00;;
6671;SDS011;3372;48.690;12.362;2023-05-10T12:57:55;3.60;;;2.00;;
6671;SDS011;3372;48.690;12.362;2023-05-10T13:00:21;2.80;;;2.10;;
6671;SDS011;3372;48.690;12.362;2023-05-10T13:02:47;2.80;;;2.27;;
6671;SDS011;3372;48.690;12.362;2023-05-10T13:05:12;2.50;;;2.20;;
6671;SDS011;3372;48.690;12.362;2023-05-10T13:07:38;2.67;;;1.90;;
6671;SDS011;3372;48.690;12.362;2023-05-10T13:10:04;2.47;;;2.00;;
6671;SDS011;3372;48.690;12.362;2023-05-10T13:12:31;3.10;;;1.93;;
6671;SDS011;3372;48.690;12.362;2023-05-10T13:14:59;2.57;;;2.17;;
6671;SDS011;3372;48.690;12.362;2023-05-10T13:17:25;3.93;;;2.53;;
6671;SDS011;3372;48.690;12.362;2023-05-10T13:19:51;2.27;;;2.00;;
6671;SDS011;3372;48.690;12.362;2023-05-10T13:22:16;2.37;;;2.17;;
6671;SDS011;3372;48.690;12.362;2023-05-10T13:24:42;2.37;;;1.80;;
6671;SDS011;3372;48.690;12.362;2023-05-10T13:27:08;1.93;;;1.73;;
6671;SDS011;3372;48.690;12.362;2023-05-10T13:29:33;5.53;;;2.40;;
6671;SDS011;3372;48.690;12.362;2023-05-10T13:31:59;2.90;;;2.60;;
6671;SDS011;3372;48.690;12.362;2023-05-10T13:34:25;2.67;;;2.47;;
6671;SDS011;3372;48.690;12.362;2023-05-10T13:36:51;3.53;;;2.60;;
6671;SDS011;3372;48.690;12.362;2023-05-10T13:39:19;3.23;;;2.70;;
6671;SDS011;3372;48.690;12.362;2023-05-10T13:41:45;3.90;;;2.90;;
6671;SDS011;3372;48.690;12.362;2023-05-10T13:44:14;2.53;;;1.90;;
6671;SDS011;3372;48.690;12.362;2023-05-10T13:46:40;5.53;;;2.40;;
6671;SDS011;3372;48.690;12.362;2023-05-10T13:49:08;3.30;;;2.33;;
6671;SDS011;3372;48.690;12.362;2023-05-10T13:51:34;4.30;;;3.20;;
6671;SDS011;3372;48.690;12.362;2023-05-10T13:54:00;3.90;;;2.87;;
6671;SDS011;3372;48.690;12.362;2023-05-10T13:56:27;4.97;;;2.83;;
6671;SDS011;3372;48.690;12.362;2023-05-10T13:58:52;3.53;;;2.93;;
6671;SDS011;3372;48.690;12.362;2023-05-10T14:01:18;3.27;;;2.77;;
6671;SDS011;3372;48.690;12.362;2023-05-10T14:03:44;4.47;;;3.30;;
6671;SDS011;3372;48.690;12.362;2023-05-10T14:06:10;5.20;;;2.90;;
6671;SDS011;3372;48.690;12.362;2023-05-10T14:08:36;3.23;;;2.73;;
6671;SDS011;3372;48.690;12.362;2023-05-10T14:11:01;2.83;;;2.53;;
6671;SDS011;3372;48.690;12.362;2023-05-10T14:13:27;3.77;;;3.17;;
6671;SDS011;3372;48.690;12.362;2023-05-10T14:15:53;3.20;;;2.90;;
6671;SDS011;3372;48.690;12.362;2023-05-10T14:18:19;3.70;;;2.50;;
6671;SDS011;3372;48.690;12.362;2023-05-10T14:20:45;2.60;;;2.40;;
6671;SDS011;3372;48.690;12.362;2023-05-10T14:23:10;2.50;;;2.30;;
6671;SDS011;3372;48.690;12.362;2023-05-10T14:25:40;2.40;;;2.20;;
6671;SDS011;3372;48.690;12.362;2023-05-10T14:28:06;3.47;;;2.70;;
6671;SDS011;3372;48.690;12.362;2023-05-10T14:30:31;3.13;;;2.80;;
6671;SDS011;3372;48.690;12.362;2023-05-10T14:33:01;3.03;;;2.30;;
6671;SDS011;3372;48.690;12.362;2023-05-10T14:35:28;2.43;;;2.17;;
6671;SDS011;3372;48.690;12.362;2023-05-10T14:37:55;7.13;;;4.80;;
6671;SDS011;3372;48.690;12.362;2023-05-10T14:40:21;3.90;;;3.10;;
6671;SDS011;3372;48.690;12.362;2023-05-10T14:42:47;5.30;;;3.97;;
6671;SDS011;3372;48.690;12.362;2023-05-10T14:45:15;7.70;;;5.57;;
6671;SDS011;3372;48.690;12.362;2023-05-10T14:47:40;3.50;;;3.20;;
6671;SDS011;3372;48.690;12.362;2023-05-10T14:50:06;3.17;;;2.87;;
6671;SDS011;3372;48.690;12.362;2023-05-10T14:52:32;4.23;;;2.43;;
6671;SDS011;3372;48.690;12.362;2023-05-10T14:55:01;2.80;;;2.10;;
6671;SDS011;3372;48.690;12.362;2023-05-10T14:57:29;3.27;;;2.97;;
6671;SDS011;3372;48.690;12.362;2023-05-10T15:00:04;4.10;;;2.00;;
6671;SDS011;3372;48.690;12.362;2023-05-10T15:02:31;3.93;;;2.27;;
6671;SDS011;3372;48.690;12.362;2023-05-10T15:04:57;2.90;;;2.50;;
6671;SDS011;3372;48.690;12.362;2023-05-10T15:07:23;6.23;;;2.70;;
6671;SDS011;3372;48.690;12.362;2023-05-10T15:09:52;14.63;;;1.70;;
6671;SDS011;3372;48.690;12.362;2023-05-10T15:12:19;3.00;;;1.83;;
6671;SDS011;3372;48.690;12.362;2023-05-10T15:14:45;3.43;;;1.80;;
6671;SDS011;3372;48.690;12.362;2023-05-10T15:17:11;3.13;;;1.90;;
6671;SDS011;3372;48.690;12.362;2023-05-10T15:19:37;3.77;;;2.00;;
6671;SDS011;3372;48.690;12.362;2023-05-10T15:22:04;3.00;;;1.80;;
6671;SDS011;3372;48.690;12.362;2023-05-10T15:24:30;3.50;;;2.30;;
6671;SDS011;3372;48.690;12.362;2023-05-10T15:26:56;4.20;;;3.10;;
6671;SDS011;3372;48.690;12.362;2023-05-10T15:29:22;3.70;;;2.77;;
6671;SDS011;3372;48.690;12.362;2023-05-10T15:31:51;3.23;;;2.47;;
6671;SDS011;3372;48.690;12.362;2023-05-10T15:34:17;3.37;;;2.43;;
6671;SDS011;3372;48.690;12.362;2023-05-10T15:36:42;3.00;;;2.10;;